Time;durP1;ratioP1;P1;durP2;ratioP2;P2;SDS_P1;SDS_P2;PMS_P1;PMS_P2;Temp;Humidity;BMP_temperature;BMP_pressure;BME280_temperature;BME280_humidity;BME280_pressure;Samples;Min_cycle;Max_cycle;Signal;HPM_P1;HPM_P2
2022/03/06 00:00:58;;;;;;;8.32;3.65;;;1.70;99.90;;;;;;5000316;28;20065;-68
2022/03/06 00:03:25;;;;;;;7.50;2.85;;;1.80;99.90;;;;;;5005240;28;20499;-69
2022/03/06 00:05:52;;;;;;;8.27;3.63;;;1.80;99.90;;;;;;5005930;28;20519;-69
2022/03/06 00:08:19;;;;;;;6.05;4.20;;;1.80;99.90;;;;;;5003303;28;20933;-69
2022/03/06 00:10:45;;;;;;;6.30;3.58;;;1.80;99.90;;;;;;5002859;28;20061;-69
2022/03/06 00:13:14;;;;;;;14.40;3.47;;;1.90;99.90;;;;;;5003716;28;20050;-66
2022/03/06 00:15:41;;;;;;;7.75;3.25;;;1.90;99.90;;;;;;5006279;28;20120;-64
2022/03/06 00:18:08;;;;;;;6.10;3.95;;;1.90;99.90;;;;;;5000280;28;20057;-65
2022/03/06 00:20:35;;;;;;;8.43;3.72;;;1.90;99.90;;;;;;5004858;28;20133;-71
2022/03/06 00:23:03;;;;;;;6.60;3.38;;;1.90;99.90;;;;;;5002538;28;20112;-64
2022/03/06 00:25:30;;;;;;;10.80;3.47;;;1.90;99.90;;;;;;5006229;28;20077;-65
2022/03/06 00:27:57;;;;;;;7.38;3.67;;;2.00;99.90;;;;;;5003290;28;20462;-70
2022/03/06 00:30:24;;;;;;;4.63;3.17;;;2.00;99.90;;;;;;4997401;28;20122;-68
2022/03/06 00:32:51;;;;;;;5.60;3.20;;;1.90;99.90;;;;;;5003820;28;20168;-67
2022/03/06 00:35:18;;;;;;;7.75;3.15;;;1.90;99.90;;;;;;5003003;28;20132;-65
2022/03/06 00:37:45;;;;;;;5.78;3.28;;;1.90;99.90;;;;;;5003547;28;20104;-76
2022/03/06 00:40:12;;;;;;;6.13;2.70;;;1.90;99.90;;;;;;5004762;28;20069;-65
2022/03/06 00:42:39;;;;;;;6.15;3.00;;;1.90;99.90;;;;;;4999177;28;20157;-70
2022/03/06 00:45:06;;;;;;;4.00;3.45;;;1.90;99.90;;;;;;5002711;28;20145;-66
2022/03/06 00:47:36;;;;;;;10.43;3.28;;;1.90;99.90;;;;;;5001066;28;20053;-66
2022/03/06 00:50:03;;;;;;;7.13;3.30;;;1.90;99.90;;;;;;5003801;28;20107;-73
2022/03/06 00:52:31;;;;;;;6.68;4.05;;;1.80;99.90;;;;;;4999118;28;20073;-71
2022/03/06 00:54:58;;;;;;;10.63;4.03;;;1.80;99.90;;;;;;5003990;28;20054;-70
2022/03/06 00:57:25;;;;;;;6.32;3.00;;;1.80;99.90;;;;;;4998636;28;20050;-71
2022/03/06 00:59:52;;;;;;;7.03;4.20;;;1.80;99.90;;;;;;5005528;28;20426;-66
2022/03/06 01:02:19;;;;;;;10.07;3.78;;;1.80;99.90;;;;;;4998587;28;20042;-69
2022/03/06 01:04:46;;;;;;;3.60;2.83;;;1.90;99.90;;;;;;5000747;28;20050;-68
2022/03/06 01:07:13;;;;;;;6.68;3.05;;;1.80;99.90;;;;;;4999495;28;20082;-66
2022/03/06 01:09:40;;;;;;;8.48;3.13;;;1.80;99.90;;;;;;4999687;28;20046;-66
2022/03/06 01:12:07;;;;;;;8.10;3.15;;;1.80;99.90;;;;;;5000658;28;20719;-74
2022/03/06 01:14:34;;;;;;;10.02;3.35;;;1.80;99.90;;;;;;5002408;28;20672;-68
2022/03/06 01:17:01;;;;;;;4.65;3.38;;;1.80;99.90;;;;;;5000648;28;20581;-71
2022/03/06 01:19:28;;;;;;;9.57;3.40;;;1.70;99.90;;;;;;5003146;28;20082;-73
2022/03/06 01:21:55;;;;;;;7.90;3.28;;;1.70;99.90;;;;;;5002613;28;20140;-67
2022/03/06 01:24:22;;;;;;;8.85;4.40;;;1.70;99.90;;;;;;5004932;28;20204;-65
2022/03/06 01:26:49;;;;;;;7.57;3.60;;;1.70;99.90;;;;;;4998735;28;20054;-74
2022/03/06 01:29:18;;;;;;;6.65;3.08;;;1.70;99.90;;;;;;5000555;28;20825;-67
2022/03/06 01:31:45;;;;;;;6.45;3.20;;;1.70;99.90;;;;;;4998390;28;20092;-68
2022/03/06 01:34:12;;;;;;;3.50;2.80;;;1.70;99.90;;;;;;4995147;28;20078;-73
2022/03/06 01:36:38;;;;;;;9.27;3.72;;;1.70;99.90;;;;;;4995394;28;20050;-64
2022/03/06 01:39:06;;;;;;;11.50;3.17;;;1.70;99.90;;;;;;5001217;28;20352;-66
2022/03/06 01:41:36;;;;;;;5.60;3.97;;;1.70;99.90;;;;;;5003517;28;20081;-76
2022/03/06 01:44:04;;;;;;;5.45;3.15;;;1.70;99.90;;;;;;5001238;28;20085;-66
2022/03/06 01:46:32;;;;;;;8.70;2.90;;;1.70;99.90;;;;;;4999824;28;20402;-66
2022/03/06 01:48:59;;;;;;;6.80;2.90;;;1.70;99.90;;;;;;5000747;28;21443;-73
2022/03/06 01:51:25;;;;;;;8.57;3.45;;;1.70;99.90;;;;;;4999163;28;20084;-72
2022/03/06 01:53:52;;;;;;;8.48;3.42;;;1.70;99.90;;;;;;5002299;28;20061;-68
2022/03/06 01:56:20;;;;;;;8.05;4.18;;;1.70;99.90;;;;;;5002559;28;20092;-73
2022/03/06 01:58:48;;;;;;;6.47;3.28;;;1.70;99.90;;;;;;5014587;28;20046;-68
2022/03/06 02:01:15;;;;;;;8.93;3.80;;;1.70;99.90;;;;;;5021168;28;20109;-65
2022/03/06 02:03:42;;;;;;;10.98;3.80;;;1.70;99.90;;;;;;5000439;28;20057;-66
2022/03/06 02:06:10;;;;;;;4.85;3.17;;;1.70;99.90;;;;;;5001502;28;20084;-64
2022/03/06 02:08:37;;;;;;;9.15;3.20;;;1.70;99.90;;;;;;4998896;28;20081;-64
2022/03/06 02:11:05;;;;;;;5.97;3.00;;;1.70;99.90;;;;;;4999524;28;20096;-68
2022/03/06 02:13:32;;;;;;;6.07;3.15;;;1.70;99.90;;;;;;5001465;28;20050;-73
2022/03/06 02:16:00;;;;;;;4.50;3.05;;;1.70;99.90;;;;;;4999830;28;20620;-69
2022/03/06 02:18:27;;;;;;;5.25;2.88;;;1.70;99.90;;;;;;4999852;28;20065;-70
2022/03/06 02:20:54;;;;;;;4.95;2.72;;;1.70;99.90;;;;;;5000161;28;20054;-70
2022/03/06 02:23:21;;;;;;;4.30;3.58;;;1.60;99.90;;;;;;5004302;28;20463;-65
2022/03/06 02:25:48;;;;;;;9.23;4.07;;;1.60;99.90;;;;;;5003170;28;20145;-65
2022/03/06 02:28:15;;;;;;;4.60;2.53;;;1.50;99.90;;;;;;5000210;28;20050;-67
2022/03/06 02:30:43;;;;;;;5.38;2.92;;;1.60;99.90;;;;;;5002291;28;20084;-64
2022/03/06 02:33:13;;;;;;;7.20;3.13;;;1.60;99.90;;;;;;4998792;28;20112;-64
2022/03/06 02:35:41;;;;;;;13.80;3.73;;;1.50;99.90;;;;;;5001377;28;21059;-68
2022/03/06 02:38:08;;;;;;;5.10;3.22;;;1.50;99.90;;;;;;4999397;28;20054;-68
2022/03/06 02:40:42;;;;;;;5.63;3.63;;;1.50;99.90;;;;;;5001922;28;20096;-70
2022/03/06 02:43:10;;;;;;;5.50;3.00;;;1.50;99.90;;;;;;5002743;28;20104;-64
2022/03/06 02:45:39;;;;;;;8.85;4.70;;;1.40;99.90;;;;;;4995679;28;20117;-69
2022/03/06 02:48:08;;;;;;;7.22;3.33;;;1.40;99.90;;;;;;5001729;28;20054;-66
2022/03/06 02:50:37;;;;;;;7.55;2.90;;;1.40;99.90;;;;;;4999260;28;20631;-67
2022/03/06 02:53:07;;;;;;;6.18;3.78;;;1.30;99.90;;;;;;5002507;28;20069;-74
2022/03/06 02:55:34;;;;;;;5.57;2.55;;;1.40;99.90;;;;;;5000141;28;20124;-70
2022/03/06 02:58:01;;;;;;;5.63;3.50;;;1.40;99.90;;;;;;5003730;28;20131;-64
2022/03/06 03:00:28;;;;;;;5.65;3.20;;;1.40;99.90;;;;;;4999754;28;20049;-69
2022/03/06 03:02:55;;;;;;;13.32;3.47;;;1.30;99.90;;;;;;4999290;28;20513;-68
2022/03/06 03:05:22;;;;;;;10.07;3.83;;;1.30;99.90;;;;;;4998955;28;20119;-66
2022/03/06 03:07:50;;;;;;;8.80;2.63;;;1.30;99.90;;;;;;4998462;28;20077;-72
2022/03/06 03:10:20;;;;;;;6.63;3.45;;;1.30;99.90;;;;;;5001035;28;21442;-68
2022/03/06 03:12:47;;;;;;;3.40;2.75;;;1.30;99.90;;;;;;5012690;28;20065;-67
2022/03/06 03:15:15;;;;;;;11.45;5.72;;;1.20;99.90;;;;;;4999344;28;20108;-66
2022/03/06 03:17:42;;;;;;;7.82;4.53;;;1.20;99.90;;;;;;5000138;28;20076;-66
2022/03/06 03:20:12;;;;;;;7.40;3.58;;;1.20;99.90;;;;;;4998953;28;20072;-64
2022/03/06 03:22:38;;;;;;;5.68;3.47;;;1.20;99.90;;;;;;4991023;28;20041;-64
2022/03/06 03:25:07;;;;;;;5.95;2.67;;;1.20;99.90;;;;;;5002107;28;20050;-69
2022/03/06 03:27:34;;;;;;;7.53;3.15;;;1.20;99.90;;;;;;5000817;28;20060;-73
2022/03/06 03:30:03;;;;;;;9.23;3.15;;;1.20;99.90;;;;;;5000142;28;20145;-64
2022/03/06 03:32:30;;;;;;;6.40;4.20;;;1.20;99.90;;;;;;4996530;28;20462;-64
2022/03/06 03:34:57;;;;;;;8.82;4.43;;;1.10;99.90;;;;;;5001283;28;20124;-67
2022/03/06 03:37:24;;;;;;;7.32;3.50;;;1.10;99.90;;;;;;4992503;28;20092;-70
2022/03/06 03:39:51;;;;;;;6.82;3.55;;;1.10;99.90;;;;;;4996349;28;20120;-65
2022/03/06 03:42:18;;;;;;;8.27;4.20;;;1.10;99.90;;;;;;4999951;28;20092;-64
2022/03/06 03:44:45;;;;;;;10.43;3.10;;;1.10;99.90;;;;;;4996664;28;20136;-67
2022/03/06 03:47:12;;;;;;;6.35;3.13;;;1.10;99.90;;;;;;4998053;28;20206;-65
2022/03/06 03:49:39;;;;;;;9.02;2.60;;;1.00;99.90;;;;;;5002277;28;20073;-65
2022/03/06 03:52:06;;;;;;;10.10;4.13;;;1.00;99.90;;;;;;4998867;28;20489;-65
2022/03/06 03:54:33;;;;;;;10.40;3.70;;;1.10;99.90;;;;;;4998806;28;20167;-65
2022/03/06 03:57:00;;;;;;;8.40;2.78;;;1.10;99.90;;;;;;4999908;28;20119;-70
2022/03/06 03:59:27;;;;;;;8.55;3.20;;;1.10;99.90;;;;;;5002360;28;20049;-69
2022/03/06 04:01:54;;;;;;;6.13;3.20;;;1.00;99.90;;;;;;4999307;28;20800;-73
2022/03/06 04:04:21;;;;;;;5.85;4.30;;;1.00;99.90;;;;;;5000375;28;20430;-67
2022/03/06 04:06:48;;;;;;;8.75;3.70;;;1.00;99.90;;;;;;4998239;28;20073;-67
2022/03/06 04:09:15;;;;;;;7.28;2.90;;;1.00;99.90;;;;;;4992811;28;20112;-64
2022/03/06 04:11:42;;;;;;;15.23;4.70;;;0.90;99.90;;;;;;4997917;28;20092;-66
2022/03/06 04:14:09;;;;;;;10.18;3.40;;;0.90;99.90;;;;;;4998452;28;20057;-65
2022/03/06 04:16:35;;;;;;;14.25;3.92;;;0.90;99.90;;;;;;4995922;28;20108;-67
2022/03/06 04:19:04;;;;;;;8.65;3.80;;;0.90;99.90;;;;;;5000627;28;20050;-66
2022/03/06 04:21:31;;;;;;;7.95;3.75;;;0.90;99.90;;;;;;4998910;28;20355;-65
2022/03/06 04:23:57;;;;;;;9.73;4.97;;;0.90;99.90;;;;;;4998144;28;20181;-73
2022/03/06 04:26:25;;;;;;;9.32;3.90;;;0.90;99.90;;;;;;5003523;28;20081;-69
2022/03/06 04:28:51;;;;;;;8.57;3.38;;;0.90;99.90;;;;;;5001682;28;20567;-67
2022/03/06 04:31:18;;;;;;;7.35;3.38;;;0.90;99.90;;;;;;5006183;28;20195;-68
2022/03/06 04:33:45;;;;;;;8.55;3.65;;;0.90;99.90;;;;;;5002965;28;20077;-65
2022/03/06 04:36:12;;;;;;;12.02;6.57;;;0.90;99.90;;;;;;5004890;28;20451;-64
2022/03/06 04:38:41;;;;;;;11.10;4.18;;;0.90;99.90;;;;;;4997774;28;20160;-68
2022/03/06 04:41:10;;;;;;;7.65;3.75;;;0.90;99.90;;;;;;5000361;28;20053;-65
2022/03/06 04:43:38;;;;;;;7.60;3.50;;;0.90;99.90;;;;;;4999453;28;20046;-65
2022/03/06 04:46:05;;;;;;;7.13;4.60;;;0.90;99.90;;;;;;5002463;28;20125;-65
2022/03/06 04:48:31;;;;;;;10.57;4.53;;;0.90;99.90;;;;;;5001299;28;20060;-75
2022/03/06 04:50:59;;;;;;;10.05;4.30;;;0.90;99.90;;;;;;5001547;28;20093;-68
2022/03/06 04:53:25;;;;;;;18.10;4.32;;;0.90;99.90;;;;;;4996898;28;20502;-65
2022/03/06 04:55:52;;;;;;;5.03;2.97;;;0.90;99.90;;;;;;5000173;28;20104;-65
2022/03/06 04:58:19;;;;;;;7.57;4.18;;;1.00;99.90;;;;;;5000445;28;20487;-64
2022/03/06 05:00:46;;;;;;;6.80;4.45;;;1.00;99.90;;;;;;4999441;28;20542;-66
2022/03/06 05:03:14;;;;;;;13.70;4.95;;;1.00;99.90;;;;;;5004469;28;21974;-64
2022/03/06 05:05:41;;;;;;;8.88;4.35;;;1.00;99.90;;;;;;5000398;28;20141;-69
2022/03/06 05:08:08;;;;;;;13.98;4.47;;;1.00;99.90;;;;;;5002293;28;20581;-67
2022/03/06 05:10:35;;;;;;;6.47;3.58;;;1.00;99.90;;;;;;4996699;28;20125;-69
2022/03/06 05:13:03;;;;;;;6.28;3.88;;;1.00;99.90;;;;;;4998677;28;20133;-64
2022/03/06 05:15:30;;;;;;;6.53;4.75;;;1.00;99.90;;;;;;5001365;28;20507;-66
2022/03/06 05:17:57;;;;;;;10.80;4.20;;;0.90;99.90;;;;;;5003534;28;20050;-68
2022/03/06 05:20:24;;;;;;;12.52;4.03;;;0.90;99.90;;;;;;4999292;28;20133;-67
2022/03/06 05:22:51;;;;;;;7.85;4.10;;;0.90;99.90;;;;;;5006840;28;20787;-68
2022/03/06 05:25:18;;;;;;;12.90;3.80;;;0.90;99.90;;;;;;5003534;28;20081;-66
2022/03/06 05:27:45;;;;;;;6.78;4.18;;;0.90;99.90;;;;;;4997554;28;20070;-69
2022/03/06 05:30:13;;;;;;;12.73;6.05;;;0.90;99.90;;;;;;5002622;28;20519;-65
2022/03/06 05:32:40;;;;;;;10.43;4.47;;;1.00;99.90;;;;;;4999763;28;20081;-64
2022/03/06 05:35:10;;;;;;;10.63;5.55;;;0.90;99.90;;;;;;5000076;28;20478;-68
2022/03/06 05:37:38;;;;;;;3.95;2.92;;;0.90;99.90;;;;;;5000673;28;20443;-69
2022/03/06 05:40:06;;;;;;;9.95;3.60;;;0.90;99.90;;;;;;5001826;28;20082;-65
2022/03/06 05:42:33;;;;;;;5.43;3.88;;;0.90;99.90;;;;;;4997100;28;20177;-69
2022/03/06 05:45:00;;;;;;;4.95;3.30;;;1.00;99.90;;;;;;5000344;28;20100;-64
2022/03/06 05:47:27;;;;;;;6.28;4.05;;;1.00;99.90;;;;;;4998220;28;20093;-68
2022/03/06 05:49:58;;;;;;;6.32;3.75;;;1.00;99.90;;;;;;5001561;28;20046;-69
2022/03/06 05:52:25;;;;;;;9.38;4.32;;;1.00;99.90;;;;;;4998665;28;20138;-68
2022/03/06 05:54:52;;;;;;;5.38;3.42;;;1.00;99.90;;;;;;5003877;28;20136;-67
2022/03/06 05:57:19;;;;;;;9.40;3.50;;;1.00;99.90;;;;;;4998874;28;20081;-65
2022/03/06 05:59:45;;;;;;;5.55;3.33;;;1.00;99.90;;;;;;5003351;28;20143;-68
2022/03/06 06:02:13;;;;;;;9.70;4.13;;;1.00;99.90;;;;;;4999446;28;20562;-74
2022/03/06 06:04:41;;;;;;;12.77;3.80;;;1.00;99.90;;;;;;4999682;28;20073;-65
2022/03/06 06:07:09;;;;;;;7.10;4.15;;;1.10;99.90;;;;;;4999296;28;20069;-66
2022/03/06 06:09:36;;;;;;;11.60;4.10;;;1.10;99.90;;;;;;5002842;28;20054;-70
2022/03/06 06:12:03;;;;;;;14.70;3.30;;;1.20;99.90;;;;;;5000910;28;20046;-70
2022/03/06 06:14:31;;;;;;;9.05;3.47;;;1.10;99.90;;;;;;5000185;28;20557;-66
2022/03/06 06:16:58;;;;;;;8.57;3.17;;;1.20;99.90;;;;;;4999025;28;20113;-71
2022/03/06 06:19:25;;;;;;;7.53;3.78;;;1.10;99.90;;;;;;5004598;28;20045;-69
2022/03/06 06:21:52;;;;;;;6.32;3.28;;;1.10;99.90;;;;;;5001713;28;20108;-66
2022/03/06 06:24:19;;;;;;;7.68;3.85;;;1.10;99.90;;;;;;5002555;28;20145;-75
2022/03/06 06:26:47;;;;;;;12.73;4.50;;;1.10;99.90;;;;;;4998377;28;20060;-67
2022/03/06 06:29:15;;;;;;;6.43;3.67;;;1.10;99.90;;;;;;4996829;28;20090;-76
2022/03/06 06:31:42;;;;;;;8.05;3.17;;;1.20;99.90;;;;;;5000109;28;20124;-72
2022/03/06 06:34:10;;;;;;;4.85;3.08;;;1.20;99.90;;;;;;5000458;28;20145;-65
2022/03/06 06:36:37;;;;;;;8.05;4.38;;;1.20;99.90;;;;;;4998431;28;20313;-64
2022/03/06 06:39:05;;;;;;;9.80;3.95;;;1.20;99.90;;;;;;5000498;28;20088;-71
2022/03/06 06:41:32;;;;;;;4.88;3.15;;;1.20;99.90;;;;;;5001212;28;20042;-67
2022/03/06 06:43:59;;;;;;;8.35;3.95;;;1.30;99.90;;;;;;4995932;28;20053;-64
2022/03/06 06:46:26;;;;;;;7.07;3.20;;;1.30;99.90;;;;;;4998935;28;20041;-75
2022/03/06 06:48:53;;;;;;;12.82;3.63;;;1.30;99.90;;;;;;5001603;28;20188;-64
2022/03/06 06:51:20;;;;;;;4.80;2.92;;;1.30;99.90;;;;;;5001370;28;20576;-63
2022/03/06 06:53:47;;;;;;;8.63;3.05;;;1.30;99.90;;;;;;5002006;28;20470;-70
2022/03/06 06:56:14;;;;;;;9.57;3.83;;;1.40;99.90;;;;;;5002788;28;20050;-66
2022/03/06 06:58:41;;;;;;;9.70;3.45;;;1.40;99.90;;;;;;4998308;28;20080;-67
2022/03/06 07:01:08;;;;;;;5.55;3.65;;;1.40;99.90;;;;;;5001756;28;20114;-71
2022/03/06 07:03:35;;;;;;;8.43;3.67;;;1.40;99.90;;;;;;5000338;28;20050;-66
2022/03/06 07:06:02;;;;;;;10.20;4.50;;;1.40;99.90;;;;;;4997856;28;20078;-66
2022/03/06 07:08:29;;;;;;;6.18;2.65;;;1.50;99.90;;;;;;5000321;28;20096;-71
2022/03/06 07:10:56;;;;;;;6.85;3.83;;;1.50;99.90;;;;;;4998009;28;20161;-65
2022/03/06 07:13:23;;;;;;;10.70;3.10;;;1.60;99.90;;;;;;5001715;28;20511;-66
2022/03/06 07:15:50;;;;;;;7.03;3.33;;;1.60;99.90;;;;;;4998916;28;20104;-73
2022/03/06 07:18:17;;;;;;;8.30;2.97;;;1.70;99.90;;;;;;4995208;28;20045;-67
2022/03/06 07:20:45;;;;;;;10.98;4.22;;;1.70;99.90;;;;;;4994121;28;20141;-68
2022/03/06 07:23:12;;;;;;;6.03;2.88;;;1.80;99.90;;;;;;4998875;28;20056;-74
2022/03/06 07:25:39;;;;;;;11.90;2.95;;;1.80;99.90;;;;;;4998986;28;20089;-66
2022/03/06 07:28:06;;;;;;;10.15;4.28;;;1.90;99.90;;;;;;4998296;28;20053;-66
2022/03/06 07:30:33;;;;;;;6.60;3.33;;;2.00;99.90;;;;;;4994395;28;20077;-70
2022/03/06 07:33:01;;;;;;;7.80;3.28;;;2.00;99.90;;;;;;4998359;28;20073;-68
2022/03/06 07:35:29;;;;;;;3.92;1.95;;;2.10;99.90;;;;;;4998898;28;20120;-63
2022/03/06 07:37:56;;;;;;;8.80;2.15;;;2.10;99.90;;;;;;5000730;28;20077;-67
2022/03/06 07:40:24;;;;;;;7.95;4.05;;;2.10;99.90;;;;;;4997605;28;20133;-64
2022/03/06 07:42:56;;;;;;;7.35;2.75;;;2.10;99.90;;;;;;4997272;28;20050;-67
2022/03/06 07:45:23;;;;;;;5.35;3.22;;;2.10;99.90;;;;;;4992372;28;20117;-66
2022/03/06 07:47:50;;;;;;;10.23;2.85;;;2.10;99.90;;;;;;4999957;28;20145;-68
2022/03/06 07:50:18;;;;;;;7.82;3.42;;;2.10;99.90;;;;;;4995186;28;20073;-66
2022/03/06 07:52:45;;;;;;;6.32;3.55;;;2.20;99.90;;;;;;4992891;28;20137;-65
2022/03/06 07:55:13;;;;;;;14.95;3.40;;;2.20;99.90;;;;;;4997166;28;20045;-64
2022/03/06 07:57:40;;;;;;;5.28;3.17;;;2.20;99.90;;;;;;4997277;28;20104;-64
2022/03/06 08:00:10;;;;;;;5.13;2.60;;;2.20;99.90;;;;;;4997965;28;20054;-64
2022/03/06 08:02:38;;;;;;;4.57;2.50;;;2.20;99.90;;;;;;4999624;28;20050;-69
2022/03/06 08:05:07;;;;;;;11.98;3.80;;;2.10;99.90;;;;;;5000568;28;20107;-63
2022/03/06 08:07:34;;;;;;;8.50;3.75;;;2.10;99.90;;;;;;5003139;28;20058;-65
2022/03/06 08:10:04;;;;;;;7.97;2.75;;;2.10;99.90;;;;;;4998021;28;20054;-67
2022/03/06 08:12:31;;;;;;;6.10;2.92;;;2.10;99.90;;;;;;5001072;28;20410;-67
2022/03/06 08:14:58;;;;;;;7.30;2.88;;;2.10;99.90;;;;;;4999662;28;20121;-65
2022/03/06 08:17:25;;;;;;;6.35;2.65;;;2.10;99.90;;;;;;5000052;28;20135;-67
2022/03/06 08:19:53;;;;;;;5.75;2.05;;;2.20;99.90;;;;;;5001399;28;20409;-64
2022/03/06 08:22:21;;;;;;;6.38;2.97;;;2.20;99.90;;;;;;5000238;28;20104;-65
2022/03/06 08:24:48;;;;;;;4.85;2.22;;;2.20;99.90;;;;;;5000100;28;20046;-69
2022/03/06 08:27:15;;;;;;;6.65;2.33;;;2.20;99.90;;;;;;5003733;28;20049;-70
2022/03/06 08:29:42;;;;;;;14.27;4.15;;;2.10;99.90;;;;;;4997866;28;20622;-65
2022/03/06 08:32:08;;;;;;;11.85;3.30;;;2.00;99.90;;;;;;5003026;28;20053;-67
2022/03/06 08:34:36;;;;;;;10.25;2.60;;;2.00;99.90;;;;;;4998551;28;20061;-71
2022/03/06 08:37:03;;;;;;;9.55;2.58;;;2.00;99.90;;;;;;5000676;28;20084;-63
2022/03/06 08:39:30;;;;;;;4.70;1.95;;;2.00;99.90;;;;;;5000622;28;20077;-65
2022/03/06 08:41:57;;;;;;;13.10;3.05;;;2.00;99.90;;;;;;5003448;28;20136;-65
2022/03/06 08:44:24;;;;;;;4.38;2.20;;;1.90;99.90;;;;;;4997758;28;20050;-68
2022/03/06 08:46:51;;;;;;;4.25;2.08;;;1.90;99.90;;;;;;5002959;28;20131;-67
2022/03/06 08:49:18;;;;;;;5.55;1.30;;;1.90;99.90;;;;;;5013798;28;20143;-68
2022/03/06 08:51:45;;;;;;;6.90;3.97;;;2.00;99.90;;;;;;5001419;28;20443;-65
2022/03/06 08:54:12;;;;;;;11.38;1.80;;;2.00;99.90;;;;;;4998272;28;20046;-66
2022/03/06 08:56:39;;;;;;;7.93;2.30;;;2.10;99.90;;;;;;5001897;28;20058;-65
2022/03/06 08:59:06;;;;;;;4.82;2.35;;;2.20;99.90;;;;;;5000900;28;20041;-68
2022/03/06 09:01:33;;;;;;;4.35;2.17;;;2.20;99.90;;;;;;5000947;28;20053;-66
2022/03/06 09:04:00;;;;;;;8.48;1.83;;;2.20;99.90;;;;;;5001975;28;20054;-66
2022/03/06 09:06:27;;;;;;;4.03;1.83;;;2.30;99.90;;;;;;4998061;28;20074;-65
2022/03/06 09:08:54;;;;;;;4.25;2.75;;;2.30;99.90;;;;;;4998252;28;20148;-65
2022/03/06 09:11:21;;;;;;;6.88;2.55;;;2.30;99.90;;;;;;5000984;28;20057;-70
2022/03/06 09:13:49;;;;;;;2.95;1.70;;;2.40;99.90;;;;;;4999372;28;20116;-68
2022/03/06 09:16:16;;;;;;;5.45;1.60;;;2.30;99.90;;;;;;5002904;28;20900;-72
2022/03/06 09:18:46;;;;;;;5.78;2.45;;;2.30;99.90;;;;;;4998660;28;20052;-64
2022/03/06 09:21:13;;;;;;;3.70;2.95;;;2.20;99.90;;;;;;5004959;28;20140;-64
2022/03/06 09:23:40;;;;;;;6.95;3.03;;;2.20;99.90;;;;;;4996341;28;20518;-65
2022/03/06 09:26:07;;;;;;;4.07;1.73;;;2.20;99.90;;;;;;5004554;28;20085;-66
2022/03/06 09:28:34;;;;;;;5.63;1.80;;;2.20;99.90;;;;;;4997144;28;20197;-66
2022/03/06 09:31:01;;;;;;;5.10;1.85;;;2.20;99.90;;;;;;5000923;28;20062;-67
2022/03/06 09:33:28;;;;;;;3.10;1.52;;;2.30;99.90;;;;;;5000124;28;20046;-67
2022/03/06 09:35:55;;;;;;;5.10;1.38;;;2.30;99.90;;;;;;5002323;28;20076;-67
2022/03/06 09:38:23;;;;;;;6.28;1.73;;;2.40;99.90;;;;;;5001008;28;20482;-67
2022/03/06 09:40:54;;;;;;;4.05;1.67;;;2.60;99.90;;;;;;4996514;28;20052;-68
2022/03/06 09:43:25;;;;;;;8.75;1.73;;;2.60;99.90;;;;;;4998701;28;20100;-68
2022/03/06 09:46:01;;;;;;;12.30;1.77;;;2.60;99.90;;;;;;5001467;28;20893;-64
2022/03/06 09:48:30;;;;;;;15.38;2.80;;;2.60;99.90;;;;;;4997313;28;20088;-69
2022/03/06 09:50:57;;;;;;;5.72;1.67;;;2.70;99.90;;;;;;4997943;28;20874;-66
2022/03/06 09:53:24;;;;;;;5.07;1.42;;;2.70;99.90;;;;;;5000296;28;20144;-68
2022/03/06 09:55:51;;;;;;;2.80;2.60;;;2.70;99.90;;;;;;4992324;28;20836;-69
2022/03/06 09:58:18;;;;;;;2.90;1.30;;;2.80;99.90;;;;;;4997088;28;20085;-64
2022/03/06 10:00:45;;;;;;;5.07;1.75;;;2.80;99.90;;;;;;5000057;28;20175;-66
2022/03/06 10:03:20;;;;;;;4.57;1.27;;;2.80;99.90;;;;;;4999197;28;20072;-64
2022/03/06 10:05:49;;;;;;;10.05;1.48;;;2.80;99.90;;;;;;5001157;28;20104;-69
2022/03/06 10:08:22;;;;;;;5.88;1.20;;;2.90;99.90;;;;;;4999114;28;20149;-72
2022/03/06 10:10:53;;;;;;;3.17;1.55;;;3.00;99.90;;;;;;5000561;28;20500;-67
2022/03/06 10:13:34;;;;;;;3.45;1.40;;;3.00;99.90;;;;;;4998479;28;20144;-68
2022/03/06 10:16:21;;;;;;;12.05;2.13;;;3.00;99.90;;;;;;4997325;28;20815;-75
2022/03/06 10:18:49;;;;;;;2.33;1.73;;;3.10;99.90;;;;;;4994833;28;20134;-74
2022/03/06 10:21:28;;;;;;;4.60;1.48;;;3.10;99.90;;;;;;5001240;28;20166;-73
2022/03/06 10:24:01;;;;;;;4.00;1.00;;;3.10;99.90;;;;;;5001013;28;20132;-64
2022/03/06 10:26:31;;;;;;;3.08;1.50;;;3.10;99.90;;;;;;4996979;28;20378;-68
2022/03/06 10:28:59;;;;;;;1.77;1.05;;;3.10;99.90;;;;;;5003207;28;20057;-63
2022/03/06 10:31:29;;;;;;;2.53;1.35;;;3.10;99.90;;;;;;5001497;28;20124;-72
2022/03/06 10:33:59;;;;;;;;;;;3.00;99.90;;;;;;4999528;28;20934;-72
2022/03/06 10:36:43;;;;;;;3.40;0.95;;;3.10;99.90;;;;;;4998710;28;19949;-68
2022/03/06 10:39:18;;;;;;;5.88;0.98;;;3.10;99.90;;;;;;4997819;28;20069;-71
2022/03/06 10:41:47;;;;;;;1.80;1.23;;;3.30;99.90;;;;;;5001451;28;20148;-67
2022/03/06 10:44:16;;;;;;;6.35;1.40;;;3.30;99.90;;;;;;4998123;28;20408;-77
2022/03/06 10:47:04;;;;;;;6.30;0.90;;;3.30;99.90;;;;;;5000424;28;20060;-64
2022/03/06 10:49:32;;;;;;;2.97;1.30;;;3.30;99.90;;;;;;4999441;28;20103;-64
2022/03/06 10:52:19;;;;;;;6.72;1.10;;;3.30;99.90;;;;;;5000417;28;20050;-66
2022/03/06 10:54:52;;;;;;;6.68;1.52;;;3.40;99.90;;;;;;4999408;28;20045;-65
2022/03/06 10:57:20;;;;;;;2.70;1.35;;;3.40;99.90;;;;;;4998868;28;20077;-64
2022/03/06 10:59:49;;;;;;;4.40;1.23;;;3.40;99.90;;;;;;4995972;28;20084;-71
2022/03/06 11:02:17;;;;;;;4.63;1.70;;;3.40;99.90;;;;;;5001642;28;20053;-64
2022/03/06 11:04:48;;;;;;;10.65;3.50;;;3.50;99.90;;;;;;4998930;28;20468;-66
2022/03/06 11:07:15;;;;;;;7.38;1.48;;;3.60;99.90;;;;;;4999531;28;20056;-67
2022/03/06 11:09:44;;;;;;;5.50;1.63;;;3.60;99.90;;;;;;5000473;28;20136;-64
2022/03/06 11:12:10;;;;;;;8.77;1.33;;;3.60;99.90;;;;;;5004220;28;20511;-67
2022/03/06 11:14:38;;;;;;;3.47;1.00;;;3.60;99.90;;;;;;4999556;28;20081;-69
2022/03/06 11:17:06;;;;;;;3.00;1.08;;;3.60;99.90;;;;;;5000218;28;20670;-71
2022/03/06 11:19:34;;;;;;;3.15;1.08;;;3.50;99.90;;;;;;4999576;28;20144;-65
2022/03/06 11:22:13;;;;;;;3.38;1.35;;;3.50;99.90;;;;;;5004886;28;20042;-64
2022/03/06 11:24:45;;;;;;;5.13;1.60;;;3.50;99.90;;;;;;4997527;28;20081;-64
2022/03/06 11:27:40;;;;;;;2.60;1.30;;;3.50;99.90;;;;;;4998811;28;20116;-64
2022/03/06 11:30:21;;;;;;;2.53;1.13;;;3.50;99.90;;;;;;4994193;28;20066;-64
2022/03/06 11:33:04;;;;;;;2.85;1.40;;;3.50;99.90;;;;;;5011151;28;20049;-64
2022/03/06 11:35:35;;;;;;;4.13;0.98;;;3.60;99.90;;;;;;4998967;28;20061;-72
2022/03/06 11:38:03;;;;;;;6.72;1.98;;;3.60;99.90;;;;;;4995391;28;20058;-67
2022/03/06 11:40:40;;;;;;;5.20;2.08;;;3.40;99.90;;;;;;4995547;28;20054;-65
2022/03/06 11:43:08;;;;;;;6.78;1.95;;;3.50;99.90;;;;;;4998688;28;20080;-68
2022/03/06 11:45:46;;;;;;;3.78;1.73;;;3.60;99.90;;;;;;4997890;28;20132;-66
2022/03/06 11:48:50;;;;;;;2.60;1.38;;;3.50;99.90;;;;;;4994779;28;20169;-68
2022/03/06 11:51:23;;;;;;;3.58;1.58;;;3.60;99.90;;;;;;4997635;28;20133;-75
2022/03/06 11:54:06;;;;;;;5.03;1.45;;;3.70;99.90;;;;;;4996556;28;20791;-68
2022/03/06 11:56:33;;;;;;;1.95;0.85;;;3.70;99.90;;;;;;4996301;28;20057;-70
2022/03/06 11:59:03;;;;;;;2.88;1.30;;;3.70;99.90;;;;;;4998429;28;20057;-65
2022/03/06 12:01:35;;;;;;;9.93;1.85;;;3.50;99.90;;;;;;4992091;28;20060;-66
2022/03/06 12:04:09;;;;;;;3.60;1.73;;;3.60;99.90;;;;;;4993432;28;20056;-69
2022/03/06 12:06:42;;;;;;;5.85;0.95;;;3.50;99.90;;;;;;4999131;28;20049;-67
2022/03/06 12:09:13;;;;;;;11.13;2.90;;;3.50;99.90;;;;;;4996853;28;20470;-75
2022/03/06 12:11:41;;;;;;;9.52;1.67;;;3.40;99.90;;;;;;4999425;28;20046;-67
2022/03/06 12:14:12;;;;;;;1.40;0.73;;;3.30;99.90;;;;;;4997901;28;20132;-63
2022/03/06 12:17:10;;;;;;;4.25;0.98;;;3.40;99.90;;;;;;4999756;28;20133;-67
2022/03/06 12:19:43;;;;;;;3.65;1.60;;;3.50;99.90;;;;;;4993539;28;20042;-75
2022/03/06 12:22:10;;;;;;;2.10;0.82;;;3.50;99.90;;;;;;4997672;28;20104;-67
2022/03/06 12:24:37;;;;;;;1.75;1.08;;;3.60;99.90;;;;;;4995409;28;20810;-64
2022/03/06 12:27:11;;;;;;;8.50;2.20;;;3.60;99.90;;;;;;4999398;28;20061;-64
2022/03/06 12:29:49;;;;;;;2.30;1.38;;;3.50;99.90;;;;;;4998596;28;20108;-70
2022/03/06 12:32:25;;;;;;;2.28;1.00;;;3.40;99.90;;;;;;4999831;28;20149;-70
2022/03/06 12:35:13;;;;;;;6.05;1.02;;;3.40;99.90;;;;;;4995731;28;20072;-68
2022/03/06 12:37:48;;;;;;;1.67;0.75;;;3.50;99.90;;;;;;5000490;28;20053;-67
2022/03/06 12:40:22;;;;;;;1.42;0.95;;;3.50;99.90;;;;;;4997127;28;20054;-65
2022/03/06 12:42:55;;;;;;;3.42;0.80;;;3.50;99.90;;;;;;4993225;28;20046;-65
2022/03/06 12:45:22;;;;;;;5.50;1.65;;;3.50;99.90;;;;;;4997395;28;20046;-66
2022/03/06 12:47:49;;;;;;;7.05;1.55;;;3.50;99.90;;;;;;4999070;28;20076;-66
2022/03/06 12:50:18;;;;;;;3.13;0.90;;;3.50;99.90;;;;;;4996229;28;20054;-65
2022/03/06 12:52:47;;;;;;;1.50;0.55;;;3.50;99.90;;;;;;5002653;28;20073;-67
2022/03/06 12:55:16;;;;;;;7.28;1.50;;;3.50;99.90;;;;;;5002979;28;20053;-67
2022/03/06 12:57:54;;;;;;;3.35;1.10;;;3.40;99.90;;;;;;5001849;28;20073;-63
2022/03/06 13:00:33;;;;;;;1.67;1.13;;;3.50;99.90;;;;;;5002242;28;20053;-69
2022/03/06 13:03:03;;;;;;;3.78;1.05;;;3.70;99.90;;;;;;5000821;28;20100;-65